Station: Edithburgh  

  Atmospheric Gas Attenuation - ITU Rec 676-11   ----------------- dB/100km -----------------
Date Time Temp RH % AH g/m3 Dew Point Wind Direction Speed kph Gust kph Barometer mB Rainfall Since 9am 24GHz 47GHz 76GHz 122GHz 134GHz 241GHz
07/09 04:30 12 78 8.31 8.3 17 26 1028.6 0 19.0 26.5 40.2 105.3 98.1 336.9
07/09 04:20 11.8 82 8.63 8.8 15 22 1028.5 0 19.7 27.1 41.6 109.1 102.7 353.0
07/09 04:10 11.7 84 8.79 9.1 15 22 1028.4 0 20.1 27.4 42.4 111.0 105.0 361.1
07/09 04:00 11.8 83 8.74 9 15 20 1028.4 0 20.0 27.3 42.1 110.3 104.2 358.3
07/09 03:50 11.4 86 8.83 9.1 13 17 1028.4 0 20.2 27.6 42.7 111.9 106.0 364.5
07/09 03:40 11.6 86 8.94 9.3 13 19 1028.3 0 20.4 27.7 43.0 112.9 107.2 368.9
07/09 03:30 12 85 9.06 9.6 15 22 1028.4 0 20.6 27.8 43.3 113.6 108.3 372.8
07/09 03:20 11.9 86 9.11 9.6 15 22 1028.5 0 20.8 27.9 43.6 114.4 109.2 375.8
07/09 03:10 12 86 9.17 9.7 15 20 1028.3 0 20.9 28.0 43.8 114.9 109.9 378.2
07/09 03:00 12 87 9.27 9.9 15 22 1028.4 0 21.1 28.1 44.2 116.0 111.3 383.1
07/09 02:50 12 86 9.17 9.7 17 20 1028.4 0 20.9 28.0 43.8 114.9 109.9 378.2
07/09 02:40 12.1 86 9.22 9.8 20 22 1028.4 0 21.0 28.0 44.0 115.3 110.4 380.1
07/09 02:30 12.1 87 9.33 10 13 19 1028.4 0 21.2 28.2 44.4 116.6 112.0 385.5
07/09 02:20 12.2 88 9.5 10.3 19 24 1028.5 0 21.6 28.5 45.1 118.4 114.2 393.4
07/09 02:10 12.2 87 9.39 10.2 20 24 1028.5 0 21.3 28.3 44.6 117.1 112.7 388.0
07/09 02:00 12.3 87 9.45 10.2 20 28 1028.6 0 21.5 28.4 44.8 117.6 113.4 390.5
07/09 01:50 12.1 87 9.33 10 17 20 1028.5 0 21.2 28.2 44.4 116.6 112.0 385.6
07/09 01:40 12.1 87 9.33 10 20 26 1028.2 0 21.2 28.2 44.4 116.5 111.9 385.5
07/09 01:30 12.3 88 9.56 10.4 19 24 1028.3 0 21.7 28.5 45.3 118.9 114.9 395.8
07/09 01:20 12.3 87 9.45 10.2 19 20 1028.2 0 21.5 28.3 44.8 117.6 113.3 390.4
07/09 01:10 12.2 87 9.39 10.1 17 24 1028.2 0 21.3 28.3 44.6 117.1 112.6 387.9
07/09 01:00 12.1 88 9.44 10.2 20 28 1028.4 0 21.5 28.4 44.9 117.8 113.5 390.9
07/09 00:50 12 89 9.49 10.2 20 30 1028.4 0 21.6 28.5 45.2 118.5 114.4 393.9
07/09 00:40 12.1 89 9.55 10.3 20 30 1028.4 0 21.7 28.6 45.4 119.1 115.1 396.4
07/09 00:30 12.3 88 9.56 10.4 20 28 1028.4 0 21.7 28.5 45.3 118.9 114.9 395.8
07/09 00:20 12.5 87 9.57 10.4 22 30 1028.2 0 21.7 28.5 45.2 118.7 114.7 395.2
07/09 00:10 12.5 89 9.79 10.7 15 19 1028.1 0 22.2 28.9 46.2 121.2 117.8 406.1
07/09 00:00 12.3 89 9.67 10.5 13 19 1028.1 0 21.9 28.7 45.8 120.1 116.4 401.2
06/09 23:50 12.1 89 9.55 10.3 11 19 1027.9 0 21.7 28.6 45.3 119.0 115.0 396.2
06/09 23:40 12.2 89 9.61 10.4 15 20 1027.9 0 21.8 28.6 45.5 119.6 115.7 398.7
06/09 23:30 12.4 87 9.51 10.3 17 24 1028 0 21.6 28.4 45.0 118.1 114.0 392.7
06/09 23:20 12.6 86 9.52 10.3 19 28 1028 0 21.6 28.4 44.9 117.9 113.9 392.2
06/09 23:10 12.8 86 9.63 10.5 17 22 1027.9 0 21.8 28.5 45.3 118.9 115.1 396.6
06/09 23:00 12.7 86 9.57 10.4 17 26 1027.9 0 21.7 28.4 45.1 118.3 114.4 394.1
06/09 22:50 12.6 88 9.74 10.7 15 20 1027.8 0 22.1 28.7 45.9 120.4 116.9 403.0
06/09 22:40 12.8 89 9.97 11 17 22 1027.7 0 22.6 29.1 46.7 122.7 119.9 413.3
06/09 22:30 12.8 88 9.86 10.9 17 24 1027.5 0 22.3 28.9 46.3 121.4 118.3 407.8
06/09 22:20 12.8 88 9.86 10.9 15 22 1027.2 0 22.3 28.9 46.2 121.4 118.3 407.7
06/09 22:10 12.8 89 9.97 11 19 26 1027.2 0 22.6 29.0 46.7 122.7 119.8 413.1
06/09 22:00 12.8 90 10.08 11.2 19 28 1027.2 0 22.8 29.2 47.2 123.9 121.4 418.6
06/09 21:50 12.8 90 10.08 11.2 15 20 1027.2 0 22.8 29.2 47.2 123.9 121.4 418.6
06/09 21:40 12.6 90 9.96 11 17 24 1027 0 22.5 29.1 46.8 122.9 120.0 413.6
06/09 21:30 12.6 91 10.07 11.2 20 26 1026.9 0 22.8 29.3 47.2 124.1 121.5 419.1
06/09 21:20 12.5 92 10.12 11.2 19 24 1026.7 0 22.9 29.4 47.5 124.8 122.4 422.1
06/09 21:10 12.4 91 9.94 11 15 20 1026.6 0 22.5 29.1 46.8 122.9 120.0 413.6
06/09 21:00 12.6 91 10.07 11.2 15 20 1026.4 0 22.8 29.3 47.2 124.1 121.5 418.9
06/09 20:50 12.5 91 10.01 11.1 11 17 1026.3 0 22.7 29.2 47.0 123.5 120.8 416.4
06/09 20:40 12.6 91 10.07 11.2 7 15 1026.3 0 22.8 29.2 47.2 124.0 121.5 418.9
06/09 20:30 11.4 89 9.14 9.7 6 9 1026.3 0 20.9 28.0 43.9 115.2 110.1 379.0
06/09 20:20 11.3 89 9.08 9.6 7 9 1026.2 0 20.7 28.0 43.7 114.7 109.4 376.5
06/09 20:10 11 88 8.81 9.1 7 11 1026.2 0 20.2 27.6 42.7 112.0 106.1 364.7
06/09 20:00 11.3 90 9.18 9.7 9 13 1026.2 0 20.9 28.1 44.1 115.8 110.8 381.4
06/09 19:50 10.6 90 8.79 9 9 13 1026.1 0 20.1 27.7 42.8 112.4 106.3 365.6
06/09 19:40 10.1 90 8.51 8.5 7 11 1026 0 19.6 27.3 41.9 109.9 103.1 354.2
06/09 19:30 9.7 92 8.48 8.5 7 9 1026 0 19.5 27.4 42.0 110.1 103.2 354.5
06/09 19:20 9.6 92 8.43 8.4 7 11 1025.8 0 19.4 27.4 41.8 109.7 102.6 352.5
06/09 19:10 9.8 91 8.45 8.4 7 9 1025.8 0 19.4 27.3 41.8 109.6 102.6 352.5
06/09 19:00 10.1 90 8.51 8.5 7 7 1025.7 0 19.6 27.3 41.9 109.9 103.0 354.1
06/09 18:50 11 90 9.01 9.4 6 7 1025.5 0 20.6 27.9 43.5 114.2 108.8 374.3
06/09 18:40 11.4 90 9.24 9.8 4 6 1025.4 0 21.1 28.2 44.3 116.2 111.4 383.7
06/09 18:30 11.4 90 9.24 9.8 4 6 1025.3 0 21.1 28.2 44.3 116.2 111.4 383.6
06/09 18:20 11.7 89 9.31 9.9 7 9 1025.1 0 21.2 28.2 44.4 116.6 112.0 385.5
06/09 18:10 11.9 86 9.11 9.6 7 9 1025.1 0 20.8 27.8 43.4 114.0 108.9 374.8
06/09 18:00 12.7 85 9.46 10.2 6 7 1025.1 0 21.5 28.1 44.5 116.8 112.6 387.9
06/09 17:50 13.1 85 9.7 10.6 7 9 1025.2 0 22.0 28.4 45.3 118.9 115.4 397.6
06/09 17:40 13.3 84 9.71 10.7 7 11 1025.1 0 22.0 28.3 45.2 118.7 115.2 397.1
06/09 17:30 13.6 84 9.89 11 7 9 1025 0 22.3 28.6 45.8 120.3 117.2 404.3
06/09 17:20 13.6 84 9.89 11 7 9 1024.8 0 22.3 28.5 45.8 120.2 117.2 404.2
06/09 17:10 13.6 83 9.77 10.8 9 11 1024.7 0 22.1 28.3 45.3 118.9 115.5 398.3
06/09 17:00 13.6 83 9.77 10.8 9 15 1024.7 0 22.1 28.3 45.3 118.9 115.5 398.3
06/09 16:50 14.1 78 9.47 10.3 11 15 1024.6 0 21.4 27.7 43.7 114.7 110.7 381.3
06/09 16:40 14.3 76 9.34 10.1 13 19 1024.6 0 21.1 27.4 43.1 113.0 108.6 374.2
06/09 16:30 14.5 79 9.83 10.9 13 19 1024.6 0 22.2 28.1 45.0 118.2 115.0 396.6
06/09 16:20 14.4 82 10.14 11.4 13 19 1024.7 0 22.8 28.7 46.4 121.8 119.5 412.2
06/09 16:10 14.4 81 10.01 11.2 13 19 1024.6 0 22.6 28.5 45.8 120.3 117.7 405.8
06/09 16:00 14.4 81 10.01 11.2 13 17 1024.5 0 22.6 28.5 45.8 120.3 117.6 405.8
06/09 15:50 14.2 84 10.26 11.5 17 22 1024.3 0 23.1 29.0 47.0 123.4 121.4 419.0
06/09 15:40 14.7 85 10.7 12.2 7 19 1024.3 0 24.0 29.6 48.6 127.7 126.8 437.9
06/09 15:30 14 87 10.49 11.9 6 7 1024.2 0 23.6 29.4 48.1 126.4 125.0 431.4
06/09 15:20 13.7 85 10.07 11.2 6 9 1024.2 0 22.7 28.8 46.5 122.1 119.5 412.3
06/09 15:10 14.1 84 10.19 11.4 4 9 1024.2 0 23.0 28.9 46.7 122.8 120.6 416.0
06/09 15:00 14.3 84 10.32 11.6 4 6 1024.1 0 23.2 29.0 47.2 123.9 122.1 421.3
06/09 14:50 14.3 80 9.83 10.9 7 15 1024.1 0 22.2 28.2 45.1 118.4 115.3 397.5
06/09 14:40 14.3 80 9.83 10.9 9 13 1024.1 0 22.2 28.2 45.1 118.4 115.3 397.5
06/09 14:30 14.3 81 9.95 11.1 11 15 1024 0 22.4 28.4 45.6 119.7 116.9 403.2
06/09 14:20 14.4 79 9.77 10.8 11 19 1023.9 0 22.0 28.1 44.8 117.6 114.3 394.0
06/09 14:10 14.3 78 9.58 10.5 11 17 1023.9 0 21.6 27.8 44.0 115.6 111.8 385.4
06/09 14:00 14.5 80 9.95 11.1 9 13 1023.8 0 22.4 28.3 45.5 119.4 116.6 402.1
06/09 13:50 14.3 79 9.71 10.7 11 15 1023.8 0 21.9 28.0 44.6 117.0 113.6 391.6
06/09 13:40 14.2 78 9.52 10.4 11 17 1023.8 0 21.5 27.7 43.8 115.1 111.1 383.0
06/09 13:30 14.2 78 9.52 10.4 11 17 1024 0 21.5 27.7 43.8 115.1 111.1 383.0
06/09 13:20 14.4 80 9.89 11 9 13 1023.9 0 22.3 28.3 45.3 118.9 115.9 399.8
06/09 13:10 14.1 80 9.71 10.7 9 15 1024.1 0 21.9 28.1 44.7 117.4 113.9 392.7
06/09 13:00 14.1 76 9.22 9.9 11 15 1024.2 0 20.9 27.2 42.7 111.9 107.2 369.3
06/09 12:50 14.7 76 9.57 10.5 11 15 1024.1 0 21.6 27.6 43.8 114.9 111.1 383.0
06/09 12:40 14.6 78 9.76 10.8 11 15 1024.2 0 22.0 28.0 44.6 117.2 113.9 392.6
06/09 12:30 14.3 79 9.71 10.7 11 17 1024.3 0 21.9 28.0 44.6 117.1 113.6 391.7
06/09 12:20 14.3 79 9.71 10.7 11 17 1024.3 0 21.9 28.0 44.6 117.1 113.6 391.7
06/09 12:10 14 82 9.89 11 11 17 1024.3 0 22.3 28.4 45.5 119.6 116.6 402.0
06/09 12:00 13.9 85 10.19 11.4 11 17 1024.5 0 23.0 29.0 46.9 123.1 120.9 417.2

Last Refresh: 07-Sep-2026 04:44:44

Bureau of Meteorology